sensor_id;sensor_type;location;lat;lon;timestamp;temperature;humidity
752;DHT22;360;48.764;9.164;2023-05-10T00:01:10;14.50;99.90
752;DHT22;360;48.764;9.164;2023-05-10T00:03:36;14.20;99.90
752;DHT22;360;48.764;9.164;2023-05-10T00:06:03;14.40;99.90
752;DHT22;360;48.764;9.164;2023-05-10T00:08:30;14.30;99.90
752;DHT22;360;48.764;9.164;2023-05-10T00:10:57;14.40;99.90
752;DHT22;360;48.764;9.164;2023-05-10T00:13:25;14.20;99.90
752;DHT22;360;48.764;9.164;2023-05-10T00:15:52;14.20;99.90
752;DHT22;360;48.764;9.164;2023-05-10T00:18:18;14.10;99.90
752;DHT22;360;48.764;9.164;2023-05-10T00:20:45;14.20;99.90
752;DHT22;360;48.764;9.164;2023-05-10T00:23:12;14.20;99.90
752;DHT22;360;48.764;9.164;2023-05-10T00:25:39;14.20;99.90
752;DHT22;360;48.764;9.164;2023-05-10T00:28:06;14.10;99.90
752;DHT22;360;48.764;9.164;2023-05-10T00:30:34;14.20;99.90
752;DHT22;360;48.764;9.164;2023-05-10T00:33:01;14.20;99.90
752;DHT22;360;48.764;9.164;2023-05-10T00:35:28;14.10;99.90
752;DHT22;360;48.764;9.164;2023-05-10T00:37:55;13.90;99.90
752;DHT22;360;48.764;9.164;2023-05-10T00:40:22;13.90;99.90
752;DHT22;360;48.764;9.164;2023-05-10T00:42:49;14.10;99.90
752;DHT22;360;48.764;9.164;2023-05-10T00:45:16;14.00;99.90
752;DHT22;360;48.764;9.164;2023-05-10T00:47:44;13.90;99.90
752;DHT22;360;48.764;9.164;2023-05-10T00:50:10;13.80;99.90
752;DHT22;360;48.764;9.164;2023-05-10T00:52:37;13.70;99.90
752;DHT22;360;48.764;9.164;2023-05-10T00:55:06;13.80;99.90
752;DHT22;360;48.764;9.164;2023-05-10T00:57:33;13.80;99.90
752;DHT22;360;48.764;9.164;2023-05-10T01:00:00;13.70;99.90
752;DHT22;360;48.764;9.164;2023-05-10T01:02:28;13.70;99.90
752;DHT22;360;48.764;9.164;2023-05-10T01:04:56;13.70;99.90
752;DHT22;360;48.764;9.164;2023-05-10T01:07:23;13.70;99.90
752;DHT22;360;48.764;9.164;2023-05-10T01:13:12;13.70;99.90
752;DHT22;360;48.764;9.164;2023-05-10T01:15:40;13.60;99.90
752;DHT22;360;48.764;9.164;2023-05-10T01:18:08;13.90;99.90
752;DHT22;360;48.764;9.164;2023-05-10T01:20:41;14.10;99.90
752;DHT22;360;48.764;9.164;2023-05-10T01:23:31;14.20;99.90
752;DHT22;360;48.764;9.164;2023-05-10T01:26:30;14.20;99.90
752;DHT22;360;48.764;9.164;2023-05-10T01:29:19;14.20;99.90
752;DHT22;360;48.764;9.164;2023-05-10T01:32:25;14.30;99.90
752;DHT22;360;48.764;9.164;2023-05-10T01:35:00;14.40;99.90
752;DHT22;360;48.764;9.164;2023-05-10T01:37:33;14.20;99.90
752;DHT22;360;48.764;9.164;2023-05-10T01:40:08;14.10;99.90
752;DHT22;360;48.764;9.164;2023-05-10T01:42:42;14.10;99.90
752;DHT22;360;48.764;9.164;2023-05-10T01:45:20;14.00;99.90
752;DHT22;360;48.764;9.164;2023-05-10T01:47:54;14.00;99.90
752;DHT22;360;48.764;9.164;2023-05-10T01:50:27;14.00;99.90
752;DHT22;360;48.764;9.164;2023-05-10T01:52:57;13.90;99.90
752;DHT22;360;48.764;9.164;2023-05-10T01:55:27;13.80;99.90
752;DHT22;360;48.764;9.164;2023-05-10T01:58:00;13.80;99.90
752;DHT22;360;48.764;9.164;2023-05-10T02:00:28;13.70;99.90
752;DHT22;360;48.764;9.164;2023-05-10T02:03:00;13.80;99.90
752;DHT22;360;48.764;9.164;2023-05-10T02:05:29;13.70;99.90
752;DHT22;360;48.764;9.164;2023-05-10T02:07:58;13.60;99.90
752;DHT22;360;48.764;9.164;2023-05-10T02:10:26;13.50;99.90
752;DHT22;360;48.764;9.164;2023-05-10T02:12:53;13.60;99.90
752;DHT22;360;48.764;9.164;2023-05-10T02:15:23;13.60;99.90
752;DHT22;360;48.764;9.164;2023-05-10T02:17:52;13.60;99.90
752;DHT22;360;48.764;9.164;2023-05-10T02:20:22;13.60;99.90
752;DHT22;360;48.764;9.164;2023-05-10T02:22:52;13.60;99.90
752;DHT22;360;48.764;9.164;2023-05-10T02:25:20;13.50;99.90
752;DHT22;360;48.764;9.164;2023-05-10T02:27:48;13.40;99.90
752;DHT22;360;48.764;9.164;2023-05-10T02:30:16;13.20;99.90
752;DHT22;360;48.764;9.164;2023-05-10T02:32:44;13.30;99.90
752;DHT22;360;48.764;9.164;2023-05-10T02:35:11;13.40;99.90
752;DHT22;360;48.764;9.164;2023-05-10T02:37:40;13.40;99.90
752;DHT22;360;48.764;9.164;2023-05-10T02:40:08;13.40;99.90
752;DHT22;360;48.764;9.164;2023-05-10T02:42:37;13.20;99.90
752;DHT22;360;48.764;9.164;2023-05-10T02:45:07;13.30;99.90
752;DHT22;360;48.764;9.164;2023-05-10T02:47:35;13.20;99.90
752;DHT22;360;48.764;9.164;2023-05-10T02:50:03;13.20;99.90
752;DHT22;360;48.764;9.164;2023-05-10T02:52:40;13.20;99.90
752;DHT22;360;48.764;9.164;2023-05-10T02:55:11;13.40;99.90
752;DHT22;360;48.764;9.164;2023-05-10T02:57:43;13.50;99.90
752;DHT22;360;48.764;9.164;2023-05-10T03:00:11;13.40;99.90
752;DHT22;360;48.764;9.164;2023-05-10T03:02:38;13.30;99.90
752;DHT22;360;48.764;9.164;2023-05-10T03:05:05;13.30;99.90
752;DHT22;360;48.764;9.164;2023-05-10T03:07:33;13.50;99.90
752;DHT22;360;48.764;9.164;2023-05-10T03:10:01;13.70;99.90
752;DHT22;360;48.764;9.164;2023-05-10T03:12:37;13.60;99.90
752;DHT22;360;48.764;9.164;2023-05-10T03:15:13;13.40;99.90
752;DHT22;360;48.764;9.164;2023-05-10T03:17:47;13.30;99.90
752;DHT22;360;48.764;9.164;2023-05-10T03:20:20;13.20;99.90
752;DHT22;360;48.764;9.164;2023-05-10T03:22:51;13.20;99.90
752;DHT22;360;48.764;9.164;2023-05-10T03:25:21;13.40;99.90
752;DHT22;360;48.764;9.164;2023-05-10T03:27:48;13.40;99.90
752;DHT22;360;48.764;9.164;2023-05-10T03:30:16;13.50;99.90
752;DHT22;360;48.764;9.164;2023-05-10T03:32:43;13.50;99.90
752;DHT22;360;48.764;9.164;2023-05-10T03:35:11;13.50;99.90
752;DHT22;360;48.764;9.164;2023-05-10T03:37:39;13.40;99.90
752;DHT22;360;48.764;9.164;2023-05-10T03:40:07;13.40;99.90
752;DHT22;360;48.764;9.164;2023-05-10T03:42:35;13.30;99.90
752;DHT22;360;48.764;9.164;2023-05-10T03:45:02;13.20;99.90
752;DHT22;360;48.764;9.164;2023-05-10T03:47:29;13.20;99.90
752;DHT22;360;48.764;9.164;2023-05-10T03:49:56;13.20;99.90
752;DHT22;360;48.764;9.164;2023-05-10T03:52:22;13.20;99.90
752;DHT22;360;48.764;9.164;2023-05-10T03:54:49;13.30;99.90
752;DHT22;360;48.764;9.164;2023-05-10T03:57:16;13.10;99.90
752;DHT22;360;48.764;9.164;2023-05-10T03:59:44;13.10;99.90
752;DHT22;360;48.764;9.164;2023-05-10T04:02:11;13.00;99.90
752;DHT22;360;48.764;9.164;2023-05-10T04:04:37;13.10;99.90
752;DHT22;360;48.764;9.164;2023-05-10T04:07:04;13.00;99.90
752;DHT22;360;48.764;9.164;2023-05-10T04:09:31;13.10;99.90
752;DHT22;360;48.764;9.164;2023-05-10T04:11:58;13.20;99.90
752;DHT22;360;48.764;9.164;2023-05-10T04:14:26;13.30;99.90
752;DHT22;360;48.764;9.164;2023-05-10T04:16:54;13.40;99.90
752;DHT22;360;48.764;9.164;2023-05-10T04:19:20;13.40;99.90
752;DHT22;360;48.764;9.164;2023-05-10T04:21:48;13.30;99.90
752;DHT22;360;48.764;9.164;2023-05-10T04:24:14;13.30;99.90
752;DHT22;360;48.764;9.164;2023-05-10T04:26:41;13.30;99.90
752;DHT22;360;48.764;9.164;2023-05-10T04:29:08;13.30;99.90
752;DHT22;360;48.764;9.164;2023-05-10T04:31:35;13.30;99.90
752;DHT22;360;48.764;9.164;2023-05-10T04:34:03;13.20;99.90
752;DHT22;360;48.764;9.164;2023-05-10T04:36:29;13.10;99.90
752;DHT22;360;48.764;9.164;2023-05-10T04:38:57;13.30;99.90
752;DHT22;360;48.764;9.164;2023-05-10T04:41:24;13.40;99.90
752;DHT22;360;48.764;9.164;2023-05-10T04:43:51;13.30;99.90
752;DHT22;360;48.764;9.164;2023-05-10T04:46:18;13.40;99.90
752;DHT22;360;48.764;9.164;2023-05-10T04:48:45;13.30;99.90
752;DHT22;360;48.764;9.164;2023-05-10T04:51:13;13.20;99.90
752;DHT22;360;48.764;9.164;2023-05-10T04:53:40;13.30;99.90
752;DHT22;360;48.764;9.164;2023-05-10T04:56:07;13.50;99.90
752;DHT22;360;48.764;9.164;2023-05-10T04:58:33;13.40;99.90
752;DHT22;360;48.764;9.164;2023-05-10T05:01:05;13.40;99.90
752;DHT22;360;48.764;9.164;2023-05-10T05:03:32;13.30;99.90
752;DHT22;360;48.764;9.164;2023-05-10T05:05:59;13.30;99.90
752;DHT22;360;48.764;9.164;2023-05-10T05:08:27;13.50;99.90
752;DHT22;360;48.764;9.164;2023-05-10T05:10:54;13.50;99.90
752;DHT22;360;48.764;9.164;2023-05-10T05:13:21;13.50;99.90
752;DHT22;360;48.764;9.164;2023-05-10T05:15:47;13.60;99.90
752;DHT22;360;48.764;9.164;2023-05-10T05:18:14;13.80;99.90
752;DHT22;360;48.764;9.164;2023-05-10T05:20:41;14.00;99.90
752;DHT22;360;48.764;9.164;2023-05-10T05:23:08;13.90;99.90
752;DHT22;360;48.764;9.164;2023-05-10T05:25:36;13.90;99.90
752;DHT22;360;48.764;9.164;2023-05-10T05:28:03;14.00;99.90
752;DHT22;360;48.764;9.164;2023-05-10T05:30:30;14.10;99.90
752;DHT22;360;48.764;9.164;2023-05-10T05:32:56;14.10;99.90
752;DHT22;360;48.764;9.164;2023-05-10T05:35:24;14.20;99.90
752;DHT22;360;48.764;9.164;2023-05-10T05:37:50;14.20;99.90
752;DHT22;360;48.764;9.164;2023-05-10T05:40:17;14.20;99.90
752;DHT22;360;48.764;9.164;2023-05-10T05:42:47;14.10;99.90
752;DHT22;360;48.764;9.164;2023-05-10T05:45:13;14.10;99.90
752;DHT22;360;48.764;9.164;2023-05-10T05:47:40;14.20;99.90
752;DHT22;360;48.764;9.164;2023-05-10T05:50:08;14.30;99.90
752;DHT22;360;48.764;9.164;2023-05-10T05:52:35;14.30;99.90
752;DHT22;360;48.764;9.164;2023-05-10T05:55:02;14.40;99.90
752;DHT22;360;48.764;9.164;2023-05-10T05:57:30;14.30;99.90
752;DHT22;360;48.764;9.164;2023-05-10T05:59:58;14.30;99.90
752;DHT22;360;48.764;9.164;2023-05-10T06:02:25;14.50;99.90
752;DHT22;360;48.764;9.164;2023-05-10T06:04:51;14.50;99.90
752;DHT22;360;48.764;9.164;2023-05-10T06:07:18;14.60;99.90
752;DHT22;360;48.764;9.164;2023-05-10T06:09:45;14.50;99.90
752;DHT22;360;48.764;9.164;2023-05-10T06:12:12;14.60;99.90
752;DHT22;360;48.764;9.164;2023-05-10T06:14:39;14.50;99.90
752;DHT22;360;48.764;9.164;2023-05-10T06:17:07;14.60;99.90
752;DHT22;360;48.764;9.164;2023-05-10T06:19:34;14.50;99.90
752;DHT22;360;48.764;9.164;2023-05-10T06:22:01;14.50;99.90
752;DHT22;360;48.764;9.164;2023-05-10T06:24:28;14.50;99.90
752;DHT22;360;48.764;9.164;2023-05-10T06:26:55;14.50;99.90
752;DHT22;360;48.764;9.164;2023-05-10T06:29:21;14.60;99.90
752;DHT22;360;48.764;9.164;2023-05-10T06:31:48;14.60;99.90
752;DHT22;360;48.764;9.164;2023-05-10T06:34:16;14.70;99.90
752;DHT22;360;48.764;9.164;2023-05-10T06:36:43;14.60;99.90
752;DHT22;360;48.764;9.164;2023-05-10T06:39:10;14.80;99.90
752;DHT22;360;48.764;9.164;2023-05-10T06:41:37;14.70;99.90
752;DHT22;360;48.764;9.164;2023-05-10T06:44:04;14.60;99.90
752;DHT22;360;48.764;9.164;2023-05-10T06:46:31;14.60;99.90
752;DHT22;360;48.764;9.164;2023-05-10T06:48:58;14.60;99.90
752;DHT22;360;48.764;9.164;2023-05-10T06:51:26;14.50;99.90
752;DHT22;360;48.764;9.164;2023-05-10T06:53:52;14.30;99.90
752;DHT22;360;48.764;9.164;2023-05-10T06:56:19;14.20;99.90
752;DHT22;360;48.764;9.164;2023-05-10T06:58:47;14.40;99.90
752;DHT22;360;48.764;9.164;2023-05-10T07:01:13;14.40;99.90
752;DHT22;360;48.764;9.164;2023-05-10T07:03:40;14.30;99.90
752;DHT22;360;48.764;9.164;2023-05-10T07:06:07;14.50;99.90
752;DHT22;360;48.764;9.164;2023-05-10T07:08:35;14.50;99.90
752;DHT22;360;48.764;9.164;2023-05-10T07:11:03;14.60;99.90
752;DHT22;360;48.764;9.164;2023-05-10T07:13:30;14.70;99.90
752;DHT22;360;48.764;9.164;2023-05-10T07:15:58;14.70;99.90
752;DHT22;360;48.764;9.164;2023-05-10T07:18:24;14.80;99.90
752;DHT22;360;48.764;9.164;2023-05-10T07:20:51;15.00;99.90
752;DHT22;360;48.764;9.164;2023-05-10T07:23:18;15.00;99.90
752;DHT22;360;48.764;9.164;2023-05-10T07:25:47;15.10;99.90
752;DHT22;360;48.764;9.164;2023-05-10T07:28:14;15.10;99.90
752;DHT22;360;48.764;9.164;2023-05-10T07:30:42;15.10;99.90
752;DHT22;360;48.764;9.164;2023-05-10T07:33:09;15.30;99.90
752;DHT22;360;48.764;9.164;2023-05-10T07:35:36;15.20;99.90
752;DHT22;360;48.764;9.164;2023-05-10T07:38:03;15.30;99.90
752;DHT22;360;48.764;9.164;2023-05-10T07:40:30;15.50;99.90
752;DHT22;360;48.764;9.164;2023-05-10T07:42:59;15.40;99.90
752;DHT22;360;48.764;9.164;2023-05-10T07:45:27;15.50;99.90
752;DHT22;360;48.764;9.164;2023-05-10T07:47:53;15.60;99.90
752;DHT22;360;48.764;9.164;2023-05-10T07:50:20;15.60;99.90
752;DHT22;360;48.764;9.164;2023-05-10T07:52:47;15.50;99.90
752;DHT22;360;48.764;9.164;2023-05-10T07:55:14;15.70;99.90
752;DHT22;360;48.764;9.164;2023-05-10T07:57:41;15.70;99.90
752;DHT22;360;48.764;9.164;2023-05-10T08:00:12;15.80;99.90
752;DHT22;360;48.764;9.164;2023-05-10T08:02:39;16.10;99.90
752;DHT22;360;48.764;9.164;2023-05-10T08:05:07;15.90;99.90
752;DHT22;360;48.764;9.164;2023-05-10T08:07:34;15.70;98.30
752;DHT22;360;48.764;9.164;2023-05-10T08:10:01;15.80;1.00
752;DHT22;360;48.764;9.164;2023-05-10T08:12:28;15.70;99.90
752;DHT22;360;48.764;9.164;2023-05-10T08:14:55;15.60;78.80
752;DHT22;360;48.764;9.164;2023-05-10T08:17:23;15.80;1.00
752;DHT22;360;48.764;9.164;2023-05-10T08:19:50;15.60;99.90
752;DHT22;360;48.764;9.164;2023-05-10T08:22:17;15.90;99.90
752;DHT22;360;48.764;9.164;2023-05-10T08:24:44;15.90;99.90
752;DHT22;360;48.764;9.164;2023-05-10T08:27:10;15.80;27.40
752;DHT22;360;48.764;9.164;2023-05-10T08:29:38;15.70;1.00
752;DHT22;360;48.764;9.164;2023-05-10T08:32:05;15.70;1.00
752;DHT22;360;48.764;9.164;2023-05-10T08:34:33;15.80;1.00
752;DHT22;360;48.764;9.164;2023-05-10T08:37:00;15.90;99.90
752;DHT22;360;48.764;9.164;2023-05-10T08:39:26;15.80;1.00
752;DHT22;360;48.764;9.164;2023-05-10T08:41:54;15.80;1.00
752;DHT22;360;48.764;9.164;2023-05-10T08:44:24;15.80;1.00
752;DHT22;360;48.764;9.164;2023-05-10T08:46:53;15.80;1.00
752;DHT22;360;48.764;9.164;2023-05-10T08:49:21;15.90;99.90
752;DHT22;360;48.764;9.164;2023-05-10T08:51:53;15.80;99.90
752;DHT22;360;48.764;9.164;2023-05-10T08:54:21;15.80;99.90
752;DHT22;360;48.764;9.164;2023-05-10T08:56:48;15.90;99.90
752;DHT22;360;48.764;9.164;2023-05-10T08:59:15;15.90;99.90
752;DHT22;360;48.764;9.164;2023-05-10T09:01:43;16.10;1.00
752;DHT22;360;48.764;9.164;2023-05-10T09:04:11;16.10;1.00
752;DHT22;360;48.764;9.164;2023-05-10T09:06:38;16.20;1.00
752;DHT22;360;48.764;9.164;2023-05-10T09:09:07;16.40;1.00
752;DHT22;360;48.764;9.164;2023-05-10T09:11:33;16.40;1.00
752;DHT22;360;48.764;9.164;2023-05-10T09:14:01;16.30;1.00
752;DHT22;360;48.764;9.164;2023-05-10T09:16:28;16.30;67.80
752;DHT22;360;48.764;9.164;2023-05-10T09:18:54;16.20;99.90
752;DHT22;360;48.764;9.164;2023-05-10T09:21:21;16.30;99.90
752;DHT22;360;48.764;9.164;2023-05-10T09:23:48;16.20;99.90
752;DHT22;360;48.764;9.164;2023-05-10T09:26:22;16.10;1.00
752;DHT22;360;48.764;9.164;2023-05-10T09:28:53;15.70;1.00
752;DHT22;360;48.764;9.164;2023-05-10T09:31:20;15.70;1.00
752;DHT22;360;48.764;9.164;2023-05-10T09:33:48;15.70;1.00
752;DHT22;360;48.764;9.164;2023-05-10T09:36:15;15.90;1.00
752;DHT22;360;48.764;9.164;2023-05-10T09:38:45;16.00;1.00
752;DHT22;360;48.764;9.164;2023-05-10T09:41:18;16.20;99.90
752;DHT22;360;48.764;9.164;2023-05-10T09:43:45;16.20;1.00
752;DHT22;360;48.764;9.164;2023-05-10T09:46:12;16.30;1.00
752;DHT22;360;48.764;9.164;2023-05-10T09:48:42;16.70;99.90
752;DHT22;360;48.764;9.164;2023-05-10T09:51:09;17.00;1.00
752;DHT22;360;48.764;9.164;2023-05-10T09:53:36;17.20;1.00
752;DHT22;360;48.764;9.164;2023-05-10T09:56:03;17.30;94.80
752;DHT22;360;48.764;9.164;2023-05-10T09:58:36;17.20;1.00
752;DHT22;360;48.764;9.164;2023-05-10T10:01:03;17.20;1.00
752;DHT22;360;48.764;9.164;2023-05-10T10:03:30;17.10;1.00
752;DHT22;360;48.764;9.164;2023-05-10T10:05:57;17.10;1.00
752;DHT22;360;48.764;9.164;2023-05-10T10:08:24;17.20;1.00
752;DHT22;360;48.764;9.164;2023-05-10T10:10:51;17.30;1.00
752;DHT22;360;48.764;9.164;2023-05-10T10:13:18;17.30;1.00
752;DHT22;360;48.764;9.164;2023-05-10T10:15:47;17.30;1.00
752;DHT22;360;48.764;9.164;2023-05-10T10:18:16;17.40;1.00
752;DHT22;360;48.764;9.164;2023-05-10T10:20:44;17.60;1.00
752;DHT22;360;48.764;9.164;2023-05-10T10:23:11;17.60;1.00
752;DHT22;360;48.764;9.164;2023-05-10T10:25:38;17.70;1.00
752;DHT22;360;48.764;9.164;2023-05-10T10:28:16;17.80;99.90
752;DHT22;360;48.764;9.164;2023-05-10T10:30:50;17.60;99.90
752;DHT22;360;48.764;9.164;2023-05-10T10:33:38;17.60;99.90
752;DHT22;360;48.764;9.164;2023-05-10T10:36:07;17.90;99.90
752;DHT22;360;48.764;9.164;2023-05-10T10:41:28;17.60;99.90
752;DHT22;360;48.764;9.164;2023-05-10T10:47:23;17.40;99.90
752;DHT22;360;48.764;9.164;2023-05-10T10:50:02;17.10;99.90
752;DHT22;360;48.764;9.164;2023-05-10T10:52:32;17.10;99.90
752;DHT22;360;48.764;9.164;2023-05-10T10:55:01;16.80;1.00
752;DHT22;360;48.764;9.164;2023-05-10T11:08:19;16.50;99.90
752;DHT22;360;48.764;9.164;2023-05-10T11:10:52;15.50;99.90
752;DHT22;360;48.764;9.164;2023-05-10T11:13:27;15.60;1.00
752;DHT22;360;48.764;9.164;2023-05-10T11:15:56;15.70;99.90
752;DHT22;360;48.764;9.164;2023-05-10T11:18:28;15.60;99.90
752;DHT22;360;48.764;9.164;2023-05-10T11:20:59;15.70;99.90
752;DHT22;360;48.764;9.164;2023-05-10T11:23:32;16.00;99.90
752;DHT22;360;48.764;9.164;2023-05-10T11:25:59;16.10;99.90
752;DHT22;360;48.764;9.164;2023-05-10T11:28:27;16.00;99.90
752;DHT22;360;48.764;9.164;2023-05-10T11:30:54;16.10;99.90
752;DHT22;360;48.764;9.164;2023-05-10T11:33:21;16.40;99.90
752;DHT22;360;48.764;9.164;2023-05-10T11:35:49;16.70;99.90
752;DHT22;360;48.764;9.164;2023-05-10T11:38:16;16.70;99.90
752;DHT22;360;48.764;9.164;2023-05-10T11:40:43;16.80;99.90
752;DHT22;360;48.764;9.164;2023-05-10T11:43:10;16.70;99.90
752;DHT22;360;48.764;9.164;2023-05-10T11:45:37;16.50;99.90
752;DHT22;360;48.764;9.164;2023-05-10T11:48:04;16.40;99.90
752;DHT22;360;48.764;9.164;2023-05-10T11:50:31;16.40;99.90
752;DHT22;360;48.764;9.164;2023-05-10T11:52:59;16.30;99.90
752;DHT22;360;48.764;9.164;2023-05-10T11:55:26;16.30;99.90
752;DHT22;360;48.764;9.164;2023-05-10T11:57:59;16.20;99.90
752;DHT22;360;48.764;9.164;2023-05-10T12:00:26;16.10;99.90
752;DHT22;360;48.764;9.164;2023-05-10T12:02:53;16.20;99.90
752;DHT22;360;48.764;9.164;2023-05-10T12:05:20;16.20;99.90
752;DHT22;360;48.764;9.164;2023-05-10T12:07:47;16.20;99.90
752;DHT22;360;48.764;9.164;2023-05-10T12:10:15;16.20;99.90
752;DHT22;360;48.764;9.164;2023-05-10T12:12:44;16.60;99.90
752;DHT22;360;48.764;9.164;2023-05-10T12:15:11;16.80;99.90
752;DHT22;360;48.764;9.164;2023-05-10T12:17:39;16.70;99.90
752;DHT22;360;48.764;9.164;2023-05-10T12:20:16;16.80;99.90
752;DHT22;360;48.764;9.164;2023-05-10T12:22:49;16.80;99.90
752;DHT22;360;48.764;9.164;2023-05-10T12:25:17;16.60;99.90
752;DHT22;360;48.764;9.164;2023-05-10T12:27:51;16.80;99.90
752;DHT22;360;48.764;9.164;2023-05-10T12:30:22;16.80;99.90
752;DHT22;360;48.764;9.164;2023-05-10T12:32:49;17.10;99.90
752;DHT22;360;48.764;9.164;2023-05-10T12:35:16;17.10;99.90
752;DHT22;360;48.764;9.164;2023-05-10T12:37:46;16.70;99.90
752;DHT22;360;48.764;9.164;2023-05-10T12:40:13;17.00;99.90
752;DHT22;360;48.764;9.164;2023-05-10T12:42:41;17.00;99.90
752;DHT22;360;48.764;9.164;2023-05-10T12:45:10;16.90;99.90
752;DHT22;360;48.764;9.164;2023-05-10T12:47:37;16.60;99.90
752;DHT22;360;48.764;9.164;2023-05-10T12:50:05;16.50;99.90
752;DHT22;360;48.764;9.164;2023-05-10T12:52:32;16.40;99.90
752;DHT22;360;48.764;9.164;2023-05-10T12:54:59;16.60;99.90
752;DHT22;360;48.764;9.164;2023-05-10T12:57:26;16.60;99.90
752;DHT22;360;48.764;9.164;2023-05-10T12:59:55;16.40;99.90
752;DHT22;360;48.764;9.164;2023-05-10T13:02:22;16.20;99.90
752;DHT22;360;48.764;9.164;2023-05-10T13:04:49;16.10;99.90
752;DHT22;360;48.764;9.164;2023-05-10T13:07:16;16.20;99.90
752;DHT22;360;48.764;9.164;2023-05-10T13:09:43;16.30;99.90
752;DHT22;360;48.764;9.164;2023-05-10T13:12:09;16.40;99.90
752;DHT22;360;48.764;9.164;2023-05-10T13:14:36;16.50;99.90
752;DHT22;360;48.764;9.164;2023-05-10T13:17:04;16.70;99.90
752;DHT22;360;48.764;9.164;2023-05-10T13:19:32;16.90;99.90
752;DHT22;360;48.764;9.164;2023-05-10T13:21:59;17.10;99.90
752;DHT22;360;48.764;9.164;2023-05-10T13:24:26;17.20;99.90
752;DHT22;360;48.764;9.164;2023-05-10T13:26:52;17.10;99.90
752;DHT22;360;48.764;9.164;2023-05-10T13:29:19;17.20;99.90
752;DHT22;360;48.764;9.164;2023-05-10T13:31:48;17.20;99.90
752;DHT22;360;48.764;9.164;2023-05-10T13:34:16;17.20;99.90
752;DHT22;360;48.764;9.164;2023-05-10T13:36:45;17.10;99.90
752;DHT22;360;48.764;9.164;2023-05-10T13:39:12;17.20;99.90
752;DHT22;360;48.764;9.164;2023-05-10T13:41:39;17.10;99.90
752;DHT22;360;48.764;9.164;2023-05-10T13:44:06;17.00;99.90
752;DHT22;360;48.764;9.164;2023-05-10T13:46:33;16.90;99.90
752;DHT22;360;48.764;9.164;2023-05-10T13:49:00;16.80;99.90
752;DHT22;360;48.764;9.164;2023-05-10T13:51:28;16.90;99.90
752;DHT22;360;48.764;9.164;2023-05-10T13:53:57;17.00;99.90
752;DHT22;360;48.764;9.164;2023-05-10T13:56:23;17.10;99.90
752;DHT22;360;48.764;9.164;2023-05-10T13:58:50;17.20;99.90
752;DHT22;360;48.764;9.164;2023-05-10T14:01:18;17.20;99.90
752;DHT22;360;48.764;9.164;2023-05-10T14:03:45;17.40;99.90
752;DHT22;360;48.764;9.164;2023-05-10T14:06:12;17.30;99.90
752;DHT22;360;48.764;9.164;2023-05-10T14:08:40;17.60;99.90
752;DHT22;360;48.764;9.164;2023-05-10T14:11:07;17.60;99.90
752;DHT22;360;48.764;9.164;2023-05-10T14:13:34;17.60;99.90
752;DHT22;360;48.764;9.164;2023-05-10T14:16:00;17.70;99.90
752;DHT22;360;48.764;9.164;2023-05-10T14:18:27;17.80;99.90
752;DHT22;360;48.764;9.164;2023-05-10T14:20:54;17.50;99.90
752;DHT22;360;48.764;9.164;2023-05-10T14:23:21;17.60;99.90
752;DHT22;360;48.764;9.164;2023-05-10T14:25:52;17.60;99.90
752;DHT22;360;48.764;9.164;2023-05-10T14:28:19;17.60;99.90
752;DHT22;360;48.764;9.164;2023-05-10T14:30:46;17.60;99.90
752;DHT22;360;48.764;9.164;2023-05-10T14:33:13;17.70;99.90
752;DHT22;360;48.764;9.164;2023-05-10T14:35:40;17.70;99.90
752;DHT22;360;48.764;9.164;2023-05-10T14:38:06;17.60;99.90
752;DHT22;360;48.764;9.164;2023-05-10T14:40:33;17.50;99.90
752;DHT22;360;48.764;9.164;2023-05-10T14:43:02;17.40;99.90
752;DHT22;360;48.764;9.164;2023-05-10T14:45:30;17.40;99.90
752;DHT22;360;48.764;9.164;2023-05-10T14:47:58;17.60;99.90
752;DHT22;360;48.764;9.164;2023-05-10T14:50:25;17.50;99.90
752;DHT22;360;48.764;9.164;2023-05-10T14:52:51;17.80;99.90
752;DHT22;360;48.764;9.164;2023-05-10T14:55:18;18.00;99.90
752;DHT22;360;48.764;9.164;2023-05-10T14:57:45;18.00;99.90
752;DHT22;360;48.764;9.164;2023-05-10T15:00:17;18.20;99.90
752;DHT22;360;48.764;9.164;2023-05-10T15:02:44;18.30;99.90
752;DHT22;360;48.764;9.164;2023-05-10T15:05:11;18.40;99.90
752;DHT22;360;48.764;9.164;2023-05-10T15:07:38;18.50;99.90
752;DHT22;360;48.764;9.164;2023-05-10T15:10:06;18.30;99.90
752;DHT22;360;48.764;9.164;2023-05-10T15:12:33;18.10;99.90
752;DHT22;360;48.764;9.164;2023-05-10T15:15:00;17.90;99.90
752;DHT22;360;48.764;9.164;2023-05-10T15:17:28;17.90;99.90
752;DHT22;360;48.764;9.164;2023-05-10T15:19:55;17.90;99.90
752;DHT22;360;48.764;9.164;2023-05-10T15:22:22;18.00;99.90
752;DHT22;360;48.764;9.164;2023-05-10T15:24:49;18.10;99.90
752;DHT22;360;48.764;9.164;2023-05-10T15:27:16;18.10;99.90
752;DHT22;360;48.764;9.164;2023-05-10T15:29:43;18.10;99.90
752;DHT22;360;48.764;9.164;2023-05-10T15:32:09;18.20;99.90
752;DHT22;360;48.764;9.164;2023-05-10T15:34:38;18.30;99.90
752;DHT22;360;48.764;9.164;2023-05-10T15:37:04;18.10;99.90
752;DHT22;360;48.764;9.164;2023-05-10T15:39:31;18.30;99.90
752;DHT22;360;48.764;9.164;2023-05-10T15:41:58;18.50;99.90
752;DHT22;360;48.764;9.164;2023-05-10T15:44:26;18.60;99.90
752;DHT22;360;48.764;9.164;2023-05-10T15:46:53;18.60;99.90
752;DHT22;360;48.764;9.164;2023-05-10T15:49:20;18.50;99.90
752;DHT22;360;48.764;9.164;2023-05-10T15:51:48;18.40;99.90
752;DHT22;360;48.764;9.164;2023-05-10T15:54:15;18.20;99.90
752;DHT22;360;48.764;9.164;2023-05-10T15:56:42;18.00;99.90
752;DHT22;360;48.764;9.164;2023-05-10T15:59:08;18.00;99.90
752;DHT22;360;48.764;9.164;2023-05-10T16:01:36;18.00;99.90
752;DHT22;360;48.764;9.164;2023-05-10T16:04:03;17.90;99.90
752;DHT22;360;48.764;9.164;2023-05-10T16:06:30;17.70;99.90
752;DHT22;360;48.764;9.164;2023-05-10T16:08:58;17.70;99.90
752;DHT22;360;48.764;9.164;2023-05-10T16:11:25;18.00;99.90
752;DHT22;360;48.764;9.164;2023-05-10T16:13:52;17.90;99.90
752;DHT22;360;48.764;9.164;2023-05-10T16:16:18;17.80;99.90
752;DHT22;360;48.764;9.164;2023-05-10T16:18:45;17.50;99.90
752;DHT22;360;48.764;9.164;2023-05-10T16:21:12;17.50;99.90
752;DHT22;360;48.764;9.164;2023-05-10T16:23:39;17.40;99.90
752;DHT22;360;48.764;9.164;2023-05-10T16:26:07;17.50;99.90
752;DHT22;360;48.764;9.164;2023-05-10T16:28:34;17.40;99.90
752;DHT22;360;48.764;9.164;2023-05-10T16:31:01;17.30;99.90
752;DHT22;360;48.764;9.164;2023-05-10T16:33:28;17.30;99.90
752;DHT22;360;48.764;9.164;2023-05-10T16:35:55;17.20;99.90
752;DHT22;360;48.764;9.164;2023-05-10T16:38:22;17.00;99.90
752;DHT22;360;48.764;9.164;2023-05-10T16:40:49;16.90;99.90
752;DHT22;360;48.764;9.164;2023-05-10T16:43:17;16.80;99.90
752;DHT22;360;48.764;9.164;2023-05-10T16:45:44;16.90;99.90
752;DHT22;360;48.764;9.164;2023-05-10T16:48:10;16.90;99.90
752;DHT22;360;48.764;9.164;2023-05-10T16:50:37;16.80;99.90
752;DHT22;360;48.764;9.164;2023-05-10T16:53:04;16.70;99.90
752;DHT22;360;48.764;9.164;2023-05-10T16:55:31;16.70;99.90
752;DHT22;360;48.764;9.164;2023-05-10T16:57:57;16.80;99.90
752;DHT22;360;48.764;9.164;2023-05-10T17:00:26;16.70;99.90
752;DHT22;360;48.764;9.164;2023-05-10T17:02:53;16.60;99.90